Ansonia, Pennsylvania
Current Conditions -  °F | °C
As of 5:35 AM on Thursday 23 Oct 2014 (Local Time) from KN38 Reporting Station
Overcast Overcast  
Wind Chill:   Ceiling: 1200
Heat Index:   Visibility: 10mi
Dew Point:   Wind: 21mph
Humidity: 81%   Direction: 340°NNW
Pressure: 29.99"   Gusts: 29mph
Location:  41.7308°N, 77.349°W
Report Text: KN38 230935Z AUTO 34018G25KT 10SM OVC012 07/04 A2999 RMK AO2
Loading
Personal Weather Stations






























Interactive Weather Map
Tropical Storm Tracking
New forecast layout! Learn more

10-Day Weather Forecast

Advertisements
Track Severe Weather on mobile